KMOT Airport (Minot Intl) Information

FAA: MOT - ICAO: KMOT

KMOT Airport Location

State North Dakota
County Ward
City Minot
KMOT Airport is 2 miles north of Minot, ND.
Latitude 48-15-27.5000N
Longitude 101-16-40.9000W
Elevation 1,715ft

KMOT Airport METARs

METAR KMOT 281454Z 28017G24KT 10SM CLR 07/00 A2997 RMK AO2 SLP161 T00720000 52025
Altimeter 29.97"
Temperature 7.2°C (45.0°F)
Wind 280° at 17KT with gusts to 24KT
Clouds Skies are clear.
Visibility 10.0mi
Time observed: 2021-10-28T14:54:00Z

KMOT Airport Details

Status Operational
Activation March 1940
Ownership Public
Usage Public
Chart BILLINGS
ATC on-site Yes
Beacon schedule sunset-sunrise
Beacon color clear green

KMOT Airport Contacts

Owner CITY OF MINOT
Owner address 305 AIRPORT RD., SUITE 216, MINOT, ND 58703
Owner phone 701-857-4724
Manager RAY HEYDE
Manager address RT 1 BOX 75, MANVEL, ND 58256
Manager phone 701-696-2501

KMOT Airport (Minot Intl) Radio Frequencies

KMOT (Airport) Radio Frequencies

UNICOM 122.95
Common traffic advisory frequency (CTAF) 118.2